createdAt,value
2023-04-01T00:00:34.021Z,91.30
2023-04-01T00:03:02.508Z,91.41
2023-04-01T00:05:30.417Z,91.42
2023-04-01T00:07:58.257Z,91.40
2023-04-01T00:10:26.133Z,91.91
2023-04-01T00:12:54.339Z,91.92
2023-04-01T00:15:23.511Z,91.91
2023-04-01T00:17:51.220Z,91.47
2023-04-01T00:20:19.308Z,91.83
2023-04-01T00:22:47.772Z,92.25
2023-04-01T00:25:15.730Z,91.97
2023-04-01T00:27:44.245Z,91.92
2023-04-01T00:30:12.614Z,92.00
2023-04-01T00:32:41.844Z,91.64
2023-04-01T00:35:10.343Z,91.77
2023-04-01T00:37:40.400Z,91.34
2023-04-01T00:40:26.064Z,91.45
2023-04-01T00:42:53.780Z,91.44
2023-04-01T00:45:33.753Z,91.53
2023-04-01T00:48:08.034Z,91.73
2023-04-01T00:50:37.781Z,91.79
2023-04-01T00:53:07.480Z,92.35
2023-04-01T00:55:39.479Z,92.38
2023-04-01T00:58:15.124Z,92.40
2023-04-01T01:00:43.806Z,92.62
2023-04-01T01:03:13.675Z,92.57
2023-04-01T01:06:01.084Z,93.43
2023-04-01T01:08:37.721Z,93.69
2023-04-01T01:11:10.400Z,93.23
2023-04-01T01:13:45.831Z,93.78
2023-04-01T01:16:22.550Z,93.82
2023-04-01T01:19:00.088Z,93.20
2023-04-01T01:22:07.292Z,93.81
2023-04-01T01:24:56.903Z,93.62
2023-04-01T01:27:25.789Z,93.93
2023-04-01T01:30:19.807Z,93.81
2023-04-01T01:33:12.619Z,92.89
2023-04-01T01:35:44.057Z,93.14
2023-04-01T01:38:15.695Z,92.90
2023-04-01T01:40:46.303Z,93.36
2023-04-01T01:43:18.394Z,93.93
2023-04-01T01:45:51.084Z,93.49
2023-04-01T01:48:19.735Z,93.93
2023-04-01T01:50:50.588Z,94.01
2023-04-01T01:53:18.647Z,93.69
2023-04-01T01:55:48.663Z,93.37
2023-04-01T01:58:21.916Z,93.51
2023-04-01T02:00:55.137Z,93.62
2023-04-01T02:03:25.710Z,93.52
2023-04-01T02:05:58.291Z,93.04
2023-04-01T02:08:30.549Z,93.06
2023-04-01T02:11:02.224Z,93.29
2023-04-01T02:13:33.680Z,92.88
2023-04-01T02:16:08.497Z,92.85
2023-04-01T02:18:39.159Z,92.71
2023-04-01T02:21:10.148Z,92.46
2023-04-01T02:23:39.947Z,92.78
2023-04-01T02:26:10.693Z,92.59
2023-04-01T02:28:41.144Z,92.88
2023-04-01T02:31:11.962Z,92.74
2023-04-01T02:33:41.395Z,92.88
2023-04-01T02:36:14.253Z,93.15
2023-04-01T02:38:53.971Z,93.27
2023-04-01T02:41:21.979Z,92.98
2023-04-01T02:43:49.709Z,93.48
2023-04-01T02:46:17.497Z,93.12
2023-04-01T02:48:45.274Z,93.37
2023-04-01T02:51:15.521Z,93.59
2023-04-01T02:53:44.487Z,93.53
2023-04-01T02:56:12.703Z,94.34
2023-04-01T02:58:40.409Z,94.42
2023-04-01T03:01:09.225Z,94.53
2023-04-01T03:03:37.094Z,94.77
2023-04-01T03:06:07.899Z,94.25
2023-04-01T03:08:37.185Z,94.52
2023-04-01T03:11:05.029Z,94.80
2023-04-01T03:13:32.714Z,94.88
2023-04-01T03:16:00.496Z,94.99
2023-04-01T03:18:28.426Z,95.00
2023-04-01T03:20:56.122Z,95.25
2023-04-01T03:23:25.284Z,95.01
2023-04-01T03:25:54.539Z,95.28
2023-04-01T03:28:22.274Z,95.68
2023-04-01T03:30:50.092Z,96.05
2023-04-01T03:33:18.287Z,95.78
2023-04-01T03:35:46.048Z,96.46
2023-04-01T03:38:13.754Z,96.19
2023-04-01T03:40:44.327Z,96.06
2023-04-01T03:43:13.840Z,95.69
2023-04-01T03:45:46.311Z,96.13
2023-04-01T03:48:14.058Z,96.03
2023-04-01T03:50:42.372Z,96.22
2023-04-01T03:53:10.123Z,96.04
2023-04-01T03:55:38.632Z,95.82
2023-04-01T03:58:07.361Z,96.01
2023-04-01T04:00:36.975Z,95.84
2023-04-01T04:03:05.554Z,96.17
2023-04-01T04:05:33.637Z,95.98
2023-04-01T04:08:01.523Z,95.80
2023-04-01T04:10:30.179Z,95.75
2023-04-01T04:12:58.659Z,96.00
2023-04-01T04:15:26.408Z,95.68
2023-04-01T04:17:55.558Z,95.58
2023-04-01T04:20:23.354Z,95.86
2023-04-01T04:22:51.146Z,96.02
2023-04-01T04:25:19.164Z,95.64
2023-04-01T04:27:46.888Z,95.64
2023-04-01T04:30:15.300Z,96.33
2023-04-01T04:32:43.244Z,95.76
2023-04-01T04:35:12.403Z,96.23
2023-04-01T04:37:40.189Z,96.21
2023-04-01T04:40:09.687Z,96.17
2023-04-01T04:42:37.552Z,95.55
2023-04-01T04:45:06.403Z,95.45
2023-04-01T04:47:34.168Z,95.50
2023-04-01T04:50:01.884Z,95.88
2023-04-01T04:52:31.067Z,96.00
2023-04-01T04:54:58.819Z,96.33
2023-04-01T04:57:26.588Z,96.40
2023-04-01T04:59:54.340Z,96.38
2023-04-01T05:02:22.066Z,96.18
2023-04-01T05:04:50.041Z,96.43
2023-04-01T05:07:18.234Z,96.49
2023-04-01T05:09:47.957Z,96.16
2023-04-01T05:12:15.694Z,96.08
2023-04-01T05:14:43.560Z,96.18
2023-04-01T05:17:12.311Z,96.06
2023-04-01T05:19:40.661Z,96.47
2023-04-01T05:22:08.656Z,96.45
2023-04-01T05:24:36.551Z,96.55
2023-04-01T05:27:05.736Z,96.24
2023-04-01T05:29:33.492Z,96.59
2023-04-01T05:32:01.611Z,96.58
2023-04-01T05:34:29.318Z,96.77
2023-04-01T05:36:57.673Z,96.88
2023-04-01T05:39:25.568Z,96.73
2023-04-01T05:41:53.301Z,96.93
2023-04-01T05:44:22.456Z,96.93
2023-04-01T05:46:50.279Z,96.51
2023-04-01T05:49:18.231Z,96.64
2023-04-01T05:51:46.029Z,97.19
2023-04-01T05:54:13.845Z,96.97
2023-04-01T05:56:41.577Z,97.23
2023-04-01T05:59:09.319Z,97.22
2023-04-01T06:01:38.488Z,97.48
2023-04-01T06:04:06.549Z,97.42
2023-04-01T06:06:34.667Z,97.00
2023-04-01T06:09:14.241Z,96.92
2023-04-01T06:11:58.041Z,97.22
2023-04-01T06:14:36.019Z,96.69
2023-04-01T06:17:20.916Z,97.37
2023-04-01T06:19:54.539Z,96.81
2023-04-01T06:22:44.117Z,96.81
2023-04-01T06:25:38.571Z,96.58
2023-04-01T06:28:38.163Z,96.47
2023-04-01T06:31:12.920Z,96.41
2023-04-01T06:33:58.706Z,97.24
2023-04-01T06:36:41.713Z,96.67
2023-04-01T06:39:40.615Z,96.43
2023-04-01T06:42:37.135Z,96.74
2023-04-01T06:45:14.155Z,96.24
2023-04-01T06:47:58.298Z,96.49
2023-04-01T06:50:32.902Z,96.32
2023-04-01T06:53:08.911Z,96.58
2023-04-01T06:55:41.992Z,96.63
2023-04-01T06:58:20.683Z,96.38
2023-04-01T07:00:52.868Z,96.53
2023-04-01T07:03:25.625Z,96.37
2023-04-01T07:05:56.178Z,96.46
2023-04-01T07:08:27.743Z,96.74
2023-04-01T07:11:00.465Z,95.91
2023-04-01T07:13:36.168Z,96.05
2023-04-01T07:16:13.301Z,96.14
2023-04-01T07:18:46.632Z,95.95
2023-04-01T07:21:25.775Z,95.46
2023-04-01T07:23:56.538Z,95.75
2023-04-01T07:26:26.269Z,95.81
2023-04-01T07:28:55.040Z,96.08
2023-04-01T07:31:42.119Z,96.31
2023-04-01T07:34:19.546Z,96.29
2023-04-01T07:36:55.160Z,96.10
2023-04-01T07:39:38.530Z,95.83
2023-04-01T07:42:17.851Z,95.57
2023-04-01T07:45:01.238Z,95.79
2023-04-01T07:47:43.553Z,96.06
2023-04-01T07:50:19.025Z,96.42
2023-04-01T07:52:57.017Z,96.34
2023-04-01T07:55:31.239Z,96.55
2023-04-01T07:58:05.027Z,96.77
2023-04-01T08:00:42.348Z,96.74
2023-04-01T08:03:21.608Z,96.49
2023-04-01T08:05:57.596Z,96.97
2023-04-01T08:08:38.143Z,96.74
2023-04-01T08:11:14.619Z,96.55
2023-04-01T08:13:48.133Z,96.72
2023-04-01T08:16:21.993Z,96.58
2023-04-01T08:19:01.701Z,96.80
2023-04-01T08:21:34.753Z,96.54
2023-04-01T08:24:16.107Z,96.41
2023-04-01T08:26:48.828Z,96.29
2023-04-01T08:29:21.971Z,96.10
2023-04-01T08:31:57.805Z,96.46
2023-04-01T08:34:28.226Z,96.39
2023-04-01T08:37:02.387Z,96.27
2023-04-01T08:39:45.080Z,96.19
2023-04-01T08:42:29.693Z,96.27
2023-04-01T08:45:17.847Z,95.26
2023-04-01T08:47:59.196Z,95.54
2023-04-01T08:51:04.632Z,95.57
2023-04-01T08:53:50.941Z,95.75
2023-04-01T08:56:26.025Z,95.24
2023-04-01T08:59:16.578Z,95.23
2023-04-01T09:02:17.184Z,95.10
2023-04-01T09:05:07.626Z,94.85
2023-04-01T09:07:47.720Z,94.58
2023-04-01T09:10:36.465Z,95.07
2023-04-01T09:13:40.009Z,94.84
2023-04-01T09:16:32.929Z,95.06
2023-04-01T09:19:26.365Z,95.20
2023-04-01T09:22:19.271Z,95.25
2023-04-01T09:25:07.963Z,95.02
2023-04-01T09:27:45.579Z,94.62
2023-04-01T09:30:41.600Z,94.26
2023-04-01T09:33:44.922Z,94.43
2023-04-01T09:36:27.019Z,94.86
2023-04-01T09:39:00.924Z,94.83
2023-04-01T09:41:33.335Z,94.41
2023-04-01T09:44:04.322Z,94.76
2023-04-01T09:47:03.341Z,95.39
2023-04-01T09:50:02.166Z,95.50
2023-04-01T09:52:40.978Z,94.98
2023-04-01T09:55:23.884Z,94.45
2023-04-01T09:58:21.220Z,94.44
2023-04-01T10:01:07.015Z,94.00
2023-04-01T10:04:09.179Z,94.14
2023-04-01T10:07:08.764Z,94.08
2023-04-01T10:10:25.736Z,94.54
2023-04-01T10:13:30.613Z,94.04
2023-04-01T10:16:27.832Z,94.18
2023-04-01T10:19:24.357Z,94.92
2023-04-01T10:22:36.681Z,94.93
2023-04-01T10:25:31.639Z,95.01
2023-04-01T10:28:31.888Z,94.59
2023-04-01T10:31:37.750Z,94.30
2023-04-01T10:34:42.905Z,94.24
2023-04-01T10:37:25.297Z,94.10
2023-04-01T10:40:26.444Z,94.03
2023-04-01T10:43:25.882Z,93.30
2023-04-01T10:46:18.305Z,93.67
2023-04-01T10:49:23.379Z,93.29
2023-04-01T10:52:35.021Z,93.17
2023-04-01T10:55:36.918Z,93.13
2023-04-01T10:58:27.674Z,92.64
2023-04-01T11:01:37.844Z,92.55
2023-04-01T11:04:48.534Z,92.31
2023-04-01T11:08:18.150Z,92.44
2023-04-01T11:11:26.683Z,92.56
2023-04-01T11:14:29.197Z,93.05
2023-04-01T11:17:44.461Z,92.88
2023-04-01T11:20:45.044Z,93.35
2023-04-01T11:23:35.739Z,93.79
2023-04-01T11:26:10.234Z,94.15
2023-04-01T11:29:09.286Z,94.47
2023-04-01T11:31:50.215Z,94.11
2023-04-01T11:34:33.569Z,93.94
2023-04-01T11:37:13.020Z,93.61
2023-04-01T11:39:55.076Z,93.69
2023-04-01T11:42:34.386Z,94.01
2023-04-01T11:45:16.636Z,94.03
2023-04-01T11:48:31.780Z,94.46
2023-04-01T11:51:13.773Z,93.87
2023-04-01T11:53:49.586Z,93.90
2023-04-01T11:56:39.401Z,93.48
2023-04-01T11:59:33.550Z,93.71
2023-04-01T12:02:10.163Z,93.32
2023-04-01T12:05:00.466Z,92.56
2023-04-01T12:07:45.357Z,92.68
2023-04-01T12:10:19.483Z,92.61
2023-04-01T12:13:01.729Z,92.59
2023-04-01T12:15:34.591Z,92.56
2023-04-01T12:18:10.044Z,91.85
2023-04-01T12:20:45.658Z,92.28
2023-04-01T12:23:31.006Z,91.84
2023-04-01T12:26:12.621Z,91.56
2023-04-01T12:28:56.359Z,91.48
2023-04-01T12:31:37.876Z,91.49
2023-04-01T12:34:36.832Z,90.76
2023-04-01T12:37:12.101Z,91.57
2023-04-01T12:40:03.883Z,91.86
2023-04-01T12:42:50.646Z,91.13
2023-04-01T12:45:31.464Z,91.19
2023-04-01T12:48:31.957Z,91.52
2023-04-01T12:51:30.068Z,91.16
2023-04-01T12:54:25.780Z,90.91
2023-04-01T12:57:05.757Z,90.94
2023-04-01T13:00:23.077Z,91.36
2023-04-01T13:03:10.365Z,90.60
2023-04-01T13:06:02.003Z,91.63
2023-04-01T13:08:41.434Z,92.31
2023-04-01T13:11:15.372Z,91.80
2023-04-01T13:14:07.413Z,91.74
2023-04-01T13:16:39.802Z,91.77
2023-04-01T13:19:16.382Z,92.31
2023-04-01T13:21:56.623Z,92.60
2023-04-01T13:24:34.209Z,92.13
2023-04-01T13:27:10.909Z,92.47
2023-04-01T13:29:42.736Z,92.96
2023-04-01T13:32:40.700Z,93.06
2023-04-01T13:35:23.501Z,93.93
2023-04-01T13:38:05.761Z,93.60
2023-04-01T13:40:49.325Z,93.88
2023-04-01T13:43:26.443Z,93.79
2023-04-01T13:46:16.384Z,93.83
2023-04-01T13:49:13.846Z,93.83
2023-04-01T13:52:10.950Z,93.16
2023-04-01T13:55:07.798Z,93.60
2023-04-01T13:57:49.660Z,93.54
2023-04-01T14:00:40.910Z,93.38
2023-04-01T14:03:30.446Z,93.84
2023-04-01T14:06:30.090Z,93.42
2023-04-01T14:09:13.206Z,93.67
2023-04-01T14:11:50.754Z,92.79
2023-04-01T14:14:33.287Z,92.85
2023-04-01T14:17:24.072Z,92.88
2023-04-01T14:20:18.208Z,92.83
2023-04-01T14:22:59.406Z,92.89
2023-04-01T14:25:57.802Z,92.53
2023-04-01T14:28:38.915Z,92.65
2023-04-01T14:31:29.183Z,92.54
2023-04-01T14:34:08.093Z,92.49
2023-04-01T14:37:03.701Z,92.47
2023-04-01T14:40:01.992Z,92.61
2023-04-01T14:42:55.879Z,92.46
2023-04-01T14:46:08.342Z,92.26
2023-04-01T14:48:39.881Z,92.58
2023-04-01T14:51:15.830Z,92.09
2023-04-01T14:53:46.863Z,91.99
2023-04-01T14:56:34.845Z,91.75
2023-04-01T14:59:06.655Z,91.64
2023-04-01T15:01:48.380Z,91.85
2023-04-01T15:04:50.045Z,91.12
2023-04-01T15:07:28.414Z,90.93
2023-04-01T15:10:09.087Z,90.76
2023-04-01T15:12:48.675Z,91.01
2023-04-01T15:15:27.060Z,91.45
2023-04-01T15:18:11.232Z,91.35
2023-04-01T15:21:05.277Z,91.41
2023-04-01T15:23:54.949Z,91.30
2023-04-01T15:26:35.501Z,91.85
2023-04-01T15:29:21.051Z,92.00
2023-04-01T15:31:59.139Z,91.91
2023-04-01T15:34:35.346Z,91.47
2023-04-01T15:37:14.554Z,91.22
2023-04-01T15:39:59.548Z,91.44
2023-04-01T15:42:56.597Z,90.78
2023-04-01T15:45:41.286Z,91.16
2023-04-01T15:48:27.534Z,91.51
2023-04-01T15:51:13.946Z,91.13
2023-04-01T15:53:57.231Z,91.34
2023-04-01T15:56:40.878Z,91.60
2023-04-01T15:59:23.171Z,91.47
2023-04-01T16:02:01.833Z,91.59
2023-04-01T16:04:51.638Z,91.38
2023-04-01T16:07:32.317Z,91.03
2023-04-01T16:10:18.459Z,92.00
2023-04-01T16:13:04.199Z,92.17
2023-04-01T16:15:40.377Z,91.98
2023-04-01T16:18:26.130Z,92.51
2023-04-01T16:21:00.018Z,92.72
2023-04-01T16:23:37.867Z,92.54
2023-04-01T16:26:11.332Z,92.50
2023-04-01T16:28:45.362Z,92.53
2023-04-01T16:31:27.764Z,92.35
2023-04-01T16:34:03.711Z,92.65
2023-04-01T16:36:40.260Z,93.15
2023-04-01T16:39:31.878Z,92.41
2023-04-01T16:42:18.012Z,92.31
2023-04-01T16:44:56.297Z,92.31
2023-04-01T16:47:32.349Z,92.19
2023-04-01T16:50:08.496Z,92.02
2023-04-01T16:53:00.694Z,92.20
2023-04-01T16:55:37.846Z,93.01
2023-04-01T16:58:05.825Z,92.85
2023-04-01T17:00:42.200Z,93.03
2023-04-01T17:03:18.352Z,93.17
2023-04-01T17:06:01.106Z,93.09
2023-04-01T17:08:36.878Z,92.89
2023-04-01T17:11:12.807Z,92.83
2023-04-01T17:13:49.729Z,92.91
2023-04-01T17:16:36.081Z,93.43
2023-04-01T17:19:13.302Z,93.14
2023-04-01T17:21:54.136Z,93.31
2023-04-01T17:24:35.686Z,93.11
2023-04-01T17:27:16.388Z,93.07
2023-04-01T17:30:07.373Z,92.87
2023-04-01T17:32:50.707Z,93.08
2023-04-01T17:35:26.601Z,92.94
2023-04-01T17:38:08.380Z,93.24
2023-04-01T17:40:53.644Z,93.67
2023-04-01T17:43:26.964Z,93.42
2023-04-01T17:45:57.212Z,93.85
2023-04-01T17:48:41.545Z,94.08
2023-04-01T17:51:26.973Z,93.93
2023-04-01T17:54:04.726Z,94.11
2023-04-01T17:56:43.774Z,94.22
2023-04-01T17:59:24.249Z,94.51
2023-04-01T18:02:01.694Z,94.35
2023-04-01T18:04:42.726Z,94.76
2023-04-01T18:07:26.181Z,94.75
2023-04-01T18:10:06.990Z,95.02
2023-04-01T18:12:57.355Z,95.02
2023-04-01T18:15:35.050Z,94.76
2023-04-01T18:18:29.164Z,95.17
2023-04-01T18:21:04.731Z,95.46
2023-04-01T18:23:44.538Z,94.84
2023-04-01T18:26:22.127Z,94.95
2023-04-01T18:28:57.368Z,94.57
2023-04-01T18:31:28.415Z,94.78
2023-04-01T18:34:00.523Z,94.92
2023-04-01T18:36:39.970Z,95.17
2023-04-01T18:39:13.612Z,94.85
2023-04-01T18:41:53.831Z,94.68
2023-04-01T18:44:32.965Z,94.86
2023-04-01T18:47:09.377Z,94.92
2023-04-01T18:49:47.163Z,95.39
2023-04-01T18:52:22.467Z,95.93
2023-04-01T18:55:29.684Z,95.78
2023-04-01T18:58:13.511Z,95.85
2023-04-01T19:00:47.904Z,95.82
2023-04-01T19:03:24.328Z,95.64
2023-04-01T19:05:54.844Z,95.49
2023-04-01T19:08:30.157Z,95.48
2023-04-01T19:11:12.166Z,95.88
2023-04-01T19:13:52.386Z,95.84
2023-04-01T19:16:30.656Z,95.85
2023-04-01T19:19:08.672Z,96.66
2023-04-01T19:21:39.256Z,96.56
2023-04-01T19:24:44.228Z,96.91
2023-04-01T19:27:20.320Z,95.90
2023-04-01T19:30:02.713Z,95.98
2023-04-01T19:32:45.560Z,96.02
2023-04-01T19:35:25.994Z,95.91
2023-04-01T19:37:59.793Z,95.52
2023-04-01T19:40:50.923Z,95.07
2023-04-01T19:43:35.832Z,94.49
2023-04-01T19:46:15.968Z,94.17
2023-04-01T19:48:58.318Z,93.72
2023-04-01T19:51:33.851Z,93.54
2023-04-01T19:54:13.866Z,94.11
2023-04-01T19:56:48.910Z,93.99
2023-04-01T19:59:26.250Z,94.50
2023-04-01T20:02:01.366Z,94.60
2023-04-01T20:04:35.180Z,94.30
2023-04-01T20:07:09.422Z,94.18
2023-04-01T20:09:56.134Z,94.23
2023-04-01T20:12:37.773Z,94.33
2023-04-01T20:15:22.405Z,94.19
2023-04-01T20:17:53.238Z,94.13
2023-04-01T20:20:28.284Z,93.68
2023-04-01T20:23:27.946Z,93.87
2023-04-01T20:26:01.042Z,93.95
2023-04-01T20:28:44.076Z,94.75
2023-04-01T20:31:36.949Z,94.06
2023-04-01T20:34:19.362Z,94.03
2023-04-01T20:37:14.074Z,93.62
2023-04-01T20:40:06.694Z,93.85
2023-04-01T20:43:09.819Z,94.43
2023-04-01T20:45:40.035Z,93.53
2023-04-01T20:48:27.759Z,93.70
2023-04-01T20:51:01.173Z,93.33
2023-04-01T20:53:39.221Z,93.05
2023-04-01T20:56:26.565Z,93.07
2023-04-01T20:59:02.568Z,92.94
2023-04-01T21:01:47.226Z,93.15
2023-04-01T21:04:29.092Z,93.13
2023-04-01T21:07:13.080Z,92.39
2023-04-01T21:09:55.126Z,91.99
2023-04-01T21:12:33.521Z,92.11
2023-04-01T21:15:21.228Z,92.35
2023-04-01T21:18:07.037Z,92.25
2023-04-01T21:20:49.306Z,92.36
2023-04-01T21:23:31.442Z,92.10
2023-04-01T21:26:12.930Z,92.50
2023-04-01T21:29:01.540Z,92.40
2023-04-01T21:31:47.950Z,91.94
2023-04-01T21:34:44.525Z,92.14
2023-04-01T21:37:46.796Z,92.45
2023-04-01T21:40:52.107Z,92.38
2023-04-01T21:43:48.296Z,92.80
2023-04-01T21:46:44.574Z,92.35
2023-04-01T21:49:26.932Z,92.37
2023-04-01T21:52:28.008Z,91.72
2023-04-01T21:55:31.823Z,92.41
2023-04-01T21:58:46.567Z,91.81
2023-04-01T22:01:40.098Z,91.53
2023-04-01T22:04:39.112Z,91.42
2023-04-01T22:07:16.855Z,91.21
2023-04-01T22:09:54.166Z,91.21
2023-04-01T22:12:30.430Z,91.15
2023-04-01T22:15:11.115Z,90.79
2023-04-01T22:17:52.974Z,90.67
2023-04-01T22:20:29.133Z,90.29
2023-04-01T22:23:15.675Z,90.61
2023-04-01T22:25:50.911Z,91.06
2023-04-01T22:28:24.208Z,90.70
2023-04-01T22:30:53.820Z,90.75
2023-04-01T22:33:34.165Z,90.73
2023-04-01T22:36:08.662Z,89.87
2023-04-01T22:39:04.699Z,90.38
2023-04-01T22:41:47.332Z,90.19
2023-04-01T22:44:22.346Z,90.99
2023-04-01T22:47:00.373Z,91.22
2023-04-01T22:49:37.058Z,91.22
2023-04-01T22:52:10.958Z,91.33
2023-04-01T22:54:43.000Z,91.60
2023-04-01T22:57:16.678Z,92.33
2023-04-01T22:59:50.859Z,92.57
2023-04-01T23:02:28.190Z,93.43
2023-04-01T23:05:00.455Z,93.26
2023-04-01T23:07:47.361Z,93.27
2023-04-01T23:10:22.413Z,93.63
2023-04-01T23:12:53.713Z,93.46
2023-04-01T23:15:22.666Z,93.37
2023-04-01T23:18:03.546Z,93.85
2023-04-01T23:20:56.151Z,93.49
2023-04-01T23:23:35.951Z,93.22
2023-04-01T23:26:10.281Z,93.40
2023-04-01T23:28:44.986Z,93.61
2023-04-01T23:31:31.200Z,93.31
2023-04-01T23:34:01.558Z,93.71
2023-04-01T23:36:33.310Z,93.16
2023-04-01T23:39:05.556Z,92.83
2023-04-01T23:41:35.465Z,93.26
2023-04-01T23:44:09.640Z,93.76
2023-04-01T23:46:39.238Z,94.57
2023-04-01T23:49:14.183Z,94.17
2023-04-01T23:51:55.575Z,93.75
2023-04-01T23:54:32.708Z,92.83
2023-04-01T23:57:01.045Z,92.66
2023-04-01T23:59:34.427Z,92.53
